createdAt,value
2016-09-12T00:01:03.961Z,0
2016-09-12T00:01:49.027Z,0
2016-09-12T00:02:49.071Z,0
2016-09-12T00:03:49.088Z,0
2016-09-12T00:04:49.107Z,0
2016-09-12T00:05:49.465Z,0
2016-09-12T00:06:49.470Z,0
2016-09-12T00:07:49.817Z,0
2016-09-12T00:08:49.315Z,0
2016-09-12T00:09:49.237Z,0
2016-09-12T00:11:04.245Z,0
2016-09-12T00:11:49.604Z,0
2016-09-12T00:13:04.847Z,0
2016-09-12T00:14:04.263Z,0
2016-09-12T00:14:49.701Z,0
2016-09-12T00:15:50.032Z,0
2016-09-12T00:16:49.596Z,0
2016-09-12T00:17:50.439Z,0
2016-09-12T00:18:49.508Z,0
2016-09-12T00:19:49.512Z,0
2016-09-12T00:20:49.672Z,0
2016-09-12T00:21:49.708Z,0
2016-09-12T00:23:04.939Z,0
2016-09-12T00:23:50.341Z,0
2016-09-12T00:25:49.673Z,0
2016-09-12T00:27:19.573Z,0
2016-09-12T00:29:05.104Z,0
2016-09-12T00:29:49.814Z,0
2016-09-12T00:30:50.134Z,0
2016-09-12T00:31:49.882Z,0
2016-09-12T00:33:05.094Z,0
2016-09-12T00:33:49.881Z,0
2016-09-12T00:34:49.912Z,0
2016-09-12T00:35:49.945Z,0
2016-09-12T00:36:49.976Z,0
2016-09-12T00:37:50.019Z,0
2016-09-12T00:39:50.347Z,0
2016-09-12T00:40:50.201Z,0
2016-09-12T00:41:51.045Z,0
2016-09-12T00:42:50.169Z,0
2016-09-12T00:44:19.996Z,0
2016-09-12T00:44:50.511Z,0
2016-09-12T00:45:50.498Z,0
2016-09-12T00:47:05.164Z,0
2016-09-12T00:47:50.253Z,0
2016-09-12T00:48:50.310Z,0
2016-09-12T00:49:50.330Z,0
2016-09-12T00:50:50.361Z,0
2016-09-12T00:52:05.680Z,0
2016-09-12T00:52:50.710Z,0
2016-09-12T00:53:50.626Z,0
2016-09-12T00:54:50.447Z,0
2016-09-12T00:55:50.542Z,0
2016-09-12T00:56:51.447Z,0
2016-09-12T00:57:50.540Z,0
2016-09-12T00:58:50.544Z,0
2016-09-12T01:00:05.723Z,0
2016-09-12T01:00:50.612Z,0
2016-09-12T01:02:05.579Z,0
2016-09-12T01:02:50.970Z,0
2016-09-12T01:03:50.684Z,0
2016-09-12T01:04:50.733Z,0
2016-09-12T01:06:05.682Z,0
2016-09-12T01:06:50.784Z,0
2016-09-12T01:07:51.109Z,0
2016-09-12T01:08:51.144Z,0
2016-09-12T01:10:50.868Z,0
2016-09-12T01:11:51.198Z,0
2016-09-12T01:12:51.534Z,0
2016-09-12T01:13:51.253Z,0
2016-09-12T01:14:51.039Z,0
2016-09-12T01:16:05.936Z,0
2016-09-12T01:16:51.038Z,0
2016-09-12T01:17:51.066Z,0
2016-09-12T01:18:51.467Z,0
2016-09-12T01:19:51.155Z,0
2016-09-12T01:20:51.507Z,0
2016-09-12T01:21:51.225Z,0
2016-09-12T01:22:51.184Z,0
2016-09-12T01:23:51.213Z,0
2016-09-12T01:25:06.354Z,0
2016-09-12T01:25:51.317Z,0
2016-09-12T01:26:51.849Z,0
2016-09-12T01:27:51.682Z,0
2016-09-12T01:28:51.672Z,0
2016-09-12T01:29:51.809Z,0
2016-09-12T01:30:51.593Z,0
2016-09-12T01:32:51.751Z,0
2016-09-12T01:33:51.611Z,0
2016-09-12T01:34:51.798Z,0
2016-09-12T01:36:06.796Z,0
2016-09-12T01:36:51.584Z,0
2016-09-12T01:38:06.610Z,0
2016-09-12T01:38:52.002Z,0
2016-09-12T01:39:51.731Z,0
2016-09-12T01:40:51.788Z,0
2016-09-12T01:41:51.698Z,0
2016-09-12T01:42:52.049Z,0
2016-09-12T01:44:06.671Z,0
2016-09-12T01:45:52.121Z,0
2016-09-12T01:46:52.499Z,0
2016-09-12T01:48:07.106Z,0
2016-09-12T01:48:52.180Z,0
2016-09-12T01:50:06.843Z,0
2016-09-12T01:50:51.944Z,0
2016-09-12T01:51:51.977Z,0
2016-09-12T01:52:53.173Z,0
2016-09-12T01:53:52.328Z,0
2016-09-12T01:54:52.753Z,0
2016-09-12T01:55:52.088Z,0
2016-09-12T01:57:07.015Z,0
2016-09-12T01:57:52.115Z,0
2016-09-12T01:58:52.466Z,0
2016-09-12T01:59:52.518Z,0
2016-09-12T02:00:52.187Z,0
2016-09-12T02:01:52.528Z,0
2016-09-12T02:03:07.204Z,0
2016-09-12T02:04:07.529Z,0
2016-09-12T02:05:52.454Z,0
2016-09-12T02:06:52.423Z,0
2016-09-12T02:07:52.390Z,0
2016-09-12T02:08:52.891Z,0
2016-09-12T02:10:52.609Z,0
2016-09-12T02:11:52.490Z,0
2016-09-12T02:13:07.441Z,0
2016-09-12T02:14:07.787Z,0
2016-09-12T02:15:07.557Z,0
2016-09-12T02:15:52.586Z,0
2016-09-12T02:17:07.588Z,0
2016-09-12T02:18:07.741Z,0
2016-09-12T02:19:08.019Z,0
2016-09-12T02:19:52.719Z,0
2016-09-12T02:20:53.365Z,0
2016-09-12T02:22:52.805Z,0
2016-09-12T02:23:53.098Z,0
2016-09-12T02:24:53.151Z,0
2016-09-12T02:25:52.856Z,0
2016-09-12T02:26:52.921Z,0
2016-09-12T02:27:52.909Z,0
2016-09-12T02:28:53.063Z,0
2016-09-12T02:30:07.875Z,0
2016-09-12T02:32:07.943Z,0
2016-09-12T02:32:54.114Z,0
2016-09-12T02:34:08.337Z,0
2016-09-12T02:34:53.410Z,0
2016-09-12T02:35:53.122Z,0
2016-09-12T02:36:53.198Z,0
2016-09-12T02:38:08.335Z,0
2016-09-12T02:38:53.297Z,0
2016-09-12T02:39:53.602Z,0
2016-09-12T02:40:54.164Z,0
2016-09-12T02:41:53.263Z,0
2016-09-12T02:42:53.314Z,0
2016-09-12T02:43:53.940Z,0
2016-09-12T02:44:53.346Z,0
2016-09-12T02:45:53.684Z,0
2016-09-12T02:46:53.689Z,0
2016-09-12T02:47:53.412Z,0
2016-09-12T02:48:53.446Z,0
2016-09-12T02:49:53.472Z,0
2016-09-12T02:51:08.648Z,0
2016-09-12T02:51:53.532Z,0
2016-09-12T02:52:54.174Z,0
2016-09-12T02:53:53.587Z,0
2016-09-12T02:54:53.650Z,0
2016-09-12T02:55:53.635Z,0
2016-09-12T02:57:08.625Z,0
2016-09-12T02:57:53.684Z,0
2016-09-12T02:58:54.017Z,0
2016-09-12T02:59:54.056Z,0
2016-09-12T03:00:53.812Z,0
2016-09-12T03:01:53.844Z,0
2016-09-12T03:02:54.125Z,0
2016-09-12T03:04:23.776Z,0
2016-09-12T03:04:53.871Z,0
2016-09-12T03:05:53.918Z,0
2016-09-12T03:07:09.162Z,0
2016-09-12T03:07:54.227Z,0
2016-09-12T03:08:54.271Z,0
2016-09-12T03:09:54.053Z,0
2016-09-12T03:10:54.047Z,0
2016-09-12T03:12:08.987Z,0
2016-09-12T03:13:08.992Z,0
2016-09-12T03:13:54.410Z,0
2016-09-12T03:14:54.119Z,0
2016-09-12T03:16:09.231Z,0
2016-09-12T03:17:09.103Z,0
2016-09-12T03:17:54.240Z,0
2016-09-12T03:19:09.155Z,0
2016-09-12T03:19:54.303Z,0
2016-09-12T03:20:54.270Z,0
2016-09-12T03:21:54.311Z,0
2016-09-12T03:23:09.287Z,0
2016-09-12T03:23:54.357Z,0
2016-09-12T03:25:09.613Z,0
2016-09-12T03:25:54.415Z,0
2016-09-12T03:26:54.763Z,0
2016-09-12T03:27:54.804Z,0
2016-09-12T03:28:54.895Z,0
2016-09-12T03:29:54.523Z,0
2016-09-12T03:30:54.606Z,0
2016-09-12T03:31:54.884Z,0
2016-09-12T03:32:54.600Z,0
2016-09-12T03:33:54.656Z,0
2016-09-12T03:35:09.570Z,0
2016-09-12T03:35:54.664Z,0
2016-09-12T03:36:55.007Z,0
2016-09-12T03:38:09.978Z,0
2016-09-12T03:39:11.158Z,0
2016-09-12T03:39:55.255Z,0
2016-09-12T03:40:54.798Z,0
2016-09-12T03:41:54.819Z,0
2016-09-12T03:42:55.196Z,0
2016-09-12T03:43:54.874Z,0
2016-09-12T03:44:54.943Z,0
2016-09-12T03:45:54.913Z,0
2016-09-12T03:46:55.023Z,0
2016-09-12T03:47:55.004Z,0
2016-09-12T03:49:09.931Z,0
2016-09-12T03:49:55.038Z,0
2016-09-12T03:50:55.059Z,0
2016-09-12T03:51:55.084Z,0
2016-09-12T03:52:55.108Z,0
2016-09-12T03:54:10.059Z,0
2016-09-12T03:55:10.207Z,0
2016-09-12T03:55:55.190Z,0
2016-09-12T03:56:55.536Z,0
2016-09-12T03:57:55.547Z,0
2016-09-12T03:58:55.262Z,0
2016-09-12T03:59:55.296Z,0
2016-09-12T04:00:55.675Z,0
2016-09-12T04:01:55.691Z,0
2016-09-12T04:02:55.374Z,0
2016-09-12T04:04:55.743Z,0
2016-09-12T04:05:55.459Z,0
2016-09-12T04:07:10.393Z,0
2016-09-12T04:07:55.839Z,0
2016-09-12T04:08:55.583Z,0
2016-09-12T04:09:55.869Z,0
2016-09-12T04:10:55.744Z,0
2016-09-12T04:11:55.951Z,0
2016-09-12T04:12:56.346Z,0
2016-09-12T04:13:55.657Z,0
2016-09-12T04:14:56.087Z,0
2016-09-12T04:15:55.696Z,0
2016-09-12T04:16:56.056Z,0
2016-09-12T04:17:56.381Z,0
2016-09-12T04:18:56.090Z,0
2016-09-12T04:19:55.813Z,0
2016-09-12T04:20:56.177Z,0
2016-09-12T04:21:55.870Z,0
2016-09-12T04:23:11.324Z,0
2016-09-12T04:23:55.919Z,0
2016-09-12T04:24:56.466Z,0
2016-09-12T04:26:10.928Z,0
2016-09-12T04:26:56.021Z,0
2016-09-12T04:29:10.974Z,0
2016-09-12T04:29:56.378Z,0
2016-09-12T04:30:56.453Z,0
2016-09-12T04:32:56.139Z,5
2016-09-12T04:33:56.170Z,5
2016-09-12T04:34:56.506Z,5
2016-09-12T04:35:56.272Z,5
2016-09-12T04:36:56.548Z,5
2016-09-12T04:37:56.344Z,5
2016-09-12T04:38:56.372Z,5
2016-09-12T04:39:56.631Z,5
2016-09-12T04:40:56.352Z,10
2016-09-12T04:42:11.965Z,10
2016-09-12T04:43:56.424Z,10
2016-09-12T04:44:56.530Z,10
2016-09-12T04:45:56.479Z,15
2016-09-12T04:46:56.510Z,15
2016-09-12T04:47:57.153Z,15
2016-09-12T04:49:56.889Z,20
2016-09-12T04:50:56.626Z,20
2016-09-12T04:51:56.944Z,20
2016-09-12T04:52:56.657Z,25
2016-09-12T04:53:56.987Z,25
2016-09-12T04:55:11.933Z,25
2016-09-12T04:55:56.775Z,30
2016-09-12T04:57:11.715Z,30
2016-09-12T04:58:12.015Z,30
2016-09-12T04:59:11.785Z,35
2016-09-12T04:59:56.838Z,35
2016-09-12T05:00:56.866Z,35
2016-09-12T05:02:56.919Z,40
2016-09-12T05:03:56.990Z,45
2016-09-12T05:05:11.881Z,45
2016-09-12T05:06:11.924Z,45
2016-09-12T05:06:57.652Z,45
2016-09-12T05:08:12.385Z,45
2016-09-12T05:09:57.098Z,50
2016-09-12T05:10:57.126Z,55
2016-09-12T05:11:57.145Z,55
2016-09-12T05:12:57.483Z,60
2016-09-12T05:14:12.431Z,60
2016-09-12T05:15:57.262Z,65
2016-09-12T05:16:57.403Z,70
2016-09-12T05:17:57.296Z,70
2016-09-12T05:19:12.256Z,75
2016-09-12T05:20:12.284Z,80
2016-09-12T05:20:57.719Z,85
2016-09-12T05:21:57.415Z,85
2016-09-12T05:22:57.756Z,90
2016-09-12T05:23:57.782Z,90
2016-09-12T05:24:57.571Z,95
2016-09-12T05:25:58.263Z,95
2016-09-12T05:26:58.228Z,100
2016-09-12T05:28:12.792Z,100
2016-09-12T05:29:12.991Z,105
2016-09-12T05:29:57.609Z,105
2016-09-12T05:30:57.665Z,110
2016-09-12T05:31:57.681Z,110
2016-09-12T05:32:57.989Z,115
2016-09-12T05:33:57.717Z,115
2016-09-12T05:34:58.051Z,120
2016-09-12T05:35:58.430Z,120
2016-09-12T05:36:57.807Z,120
2016-09-12T05:37:57.850Z,120
2016-09-12T05:38:58.311Z,125
2016-09-12T05:39:57.935Z,125
2016-09-12T05:41:12.861Z,130
2016-09-12T05:42:12.905Z,145
2016-09-12T05:42:58.318Z,145
2016-09-12T05:43:58.305Z,140
2016-09-12T05:45:59.593Z,145
2016-09-12T05:46:58.095Z,145
2016-09-12T05:47:58.420Z,150
2016-09-12T05:50:13.072Z,160
2016-09-12T05:50:58.178Z,165
2016-09-12T05:51:58.223Z,170
2016-09-12T05:52:58.232Z,210
2016-09-12T05:53:58.281Z,265
2016-09-12T05:56:13.268Z,350
2016-09-12T05:58:28.217Z,345
2016-09-12T05:58:58.394Z,345
2016-09-12T05:59:58.437Z,340
2016-09-12T06:01:13.378Z,310
2016-09-12T06:02:13.420Z,315
2016-09-12T06:04:58.549Z,310
2016-09-12T06:05:59.196Z,285
2016-09-12T06:06:58.628Z,285
2016-09-12T06:07:58.970Z,270
2016-09-12T06:08:58.972Z,280
2016-09-12T06:10:00.199Z,285
2016-09-12T06:10:59.046Z,285
2016-09-12T06:11:59.398Z,285
2016-09-12T06:12:58.898Z,280
2016-09-12T06:14:03.180Z,280
2016-09-12T06:14:58.919Z,285
2016-09-12T06:17:14.209Z,310
2016-09-12T06:17:58.942Z,325
2016-09-12T06:20:05.611Z,335
2016-09-12T06:21:05.825Z,375
2016-09-12T06:23:20.262Z,670
2016-09-12T06:24:34.985Z,990
2016-09-12T06:24:43.618Z,985
2016-09-12T06:25:43.957Z,855
2016-09-12T06:27:13.520Z,770
2016-09-12T06:27:58.589Z,785
2016-09-12T06:28:58.639Z,820
2016-09-12T06:29:58.652Z,775
2016-09-12T06:30:58.686Z,785
2016-09-12T06:32:43.829Z,815
2016-09-12T06:33:44.179Z,800
2016-09-12T06:34:58.963Z,805
2016-09-12T06:35:43.937Z,805
2016-09-12T06:36:43.964Z,820
2016-09-12T06:37:44.008Z,820
2016-09-12T06:38:44.016Z,785
2016-09-12T06:39:44.055Z,795
2016-09-12T06:40:56.459Z,785
2016-09-12T06:43:14.967Z,800
2016-09-12T06:50:13.962Z,850
2016-09-12T06:58:55.032Z,915
2016-09-12T07:10:41.911Z,900
2016-09-12T07:11:51.370Z,895
2016-09-12T12:46:08.889Z,155
2016-09-12T12:50:15.139Z,160
2016-09-12T12:59:06.237Z,160
2016-09-12T13:03:51.271Z,160
2016-09-12T13:13:42.588Z,160
2016-09-12T13:17:42.753Z,160
2016-09-12T13:21:57.822Z,155
2016-09-12T13:24:43.057Z,155
2016-09-12T13:25:43.085Z,150
2016-09-12T13:26:43.123Z,150
2016-09-12T13:27:43.146Z,150
2016-09-12T13:28:43.187Z,150
2016-09-12T13:30:58.175Z,155
2016-09-12T13:32:13.135Z,155
2016-09-12T13:32:43.328Z,155
2016-09-12T13:33:43.346Z,155
2016-09-12T13:34:43.380Z,155
2016-09-12T13:35:43.411Z,155
2016-09-12T13:36:43.448Z,155
2016-09-12T13:37:43.477Z,150
2016-09-12T13:38:43.509Z,150
2016-09-12T13:39:43.548Z,150
2016-09-12T13:40:43.577Z,145
2016-09-12T13:41:43.613Z,150
2016-09-12T13:42:43.641Z,150
2016-09-12T13:43:58.603Z,150
2016-09-12T13:44:43.706Z,150
2016-09-12T13:45:43.741Z,150
2016-09-12T13:46:43.814Z,150
2016-09-12T13:47:43.806Z,145
2016-09-12T13:48:43.842Z,145
2016-09-12T13:49:43.889Z,150
2016-09-12T13:50:43.908Z,150
2016-09-12T13:51:43.939Z,150
2016-09-12T13:52:43.966Z,150
2016-09-12T13:53:44.299Z,150
2016-09-12T13:54:44.036Z,150
2016-09-12T13:55:44.061Z,150
2016-09-12T13:56:44.111Z,150
2016-09-12T13:57:44.134Z,145
2016-09-12T13:58:44.219Z,145
2016-09-12T14:00:59.158Z,145
2016-09-12T14:02:44.307Z,145
2016-09-12T14:03:59.253Z,145
2016-09-12T14:04:44.355Z,145
2016-09-12T14:05:44.398Z,145
2016-09-12T14:06:44.426Z,145
2016-09-12T14:07:44.464Z,140
2016-09-12T14:08:59.417Z,140
2016-09-12T14:09:44.530Z,140
2016-09-12T14:10:44.552Z,140
2016-09-12T14:11:44.585Z,140
2016-09-12T14:12:44.640Z,140
2016-09-12T14:13:59.584Z,140
2016-09-12T14:14:44.682Z,140
2016-09-12T14:15:45.123Z,140
2016-09-12T14:16:59.678Z,135
2016-09-12T14:17:44.834Z,135
2016-09-12T14:18:44.820Z,135
2016-09-12T14:19:59.772Z,130
2016-09-12T14:20:44.887Z,130
2016-09-12T14:21:45.216Z,130
2016-09-12T14:22:44.949Z,130
2016-09-12T14:23:44.986Z,130
2016-09-12T14:24:45.009Z,130
2016-09-12T14:25:45.066Z,130
2016-09-12T14:26:45.084Z,130
2016-09-12T14:27:45.117Z,130
2016-09-12T14:29:00.065Z,125
2016-09-12T14:29:45.179Z,125
2016-09-12T14:30:45.208Z,130
2016-09-12T14:31:45.256Z,130
2016-09-12T14:33:45.302Z,130
2016-09-12T14:34:45.343Z,130
2016-09-12T14:36:00.303Z,130
2016-09-12T14:37:00.330Z,130
2016-09-12T14:37:45.432Z,130
2016-09-12T14:39:00.399Z,130
2016-09-12T14:39:45.499Z,130
2016-09-12T14:41:45.563Z,125
2016-09-12T14:42:45.612Z,125
2016-09-12T14:43:45.633Z,125
2016-09-12T14:44:45.655Z,125
2016-09-12T14:45:45.714Z,125
2016-09-12T14:46:45.731Z,125
2016-09-12T14:47:45.764Z,120
2016-09-12T14:48:45.793Z,120
2016-09-12T14:50:00.753Z,120
2016-09-12T14:50:45.870Z,120
2016-09-12T14:52:00.818Z,120
2016-09-12T14:52:45.933Z,120
2016-09-12T14:53:45.963Z,120
2016-09-12T14:54:45.999Z,120
2016-09-12T14:55:46.025Z,120
2016-09-12T14:56:46.056Z,120
2016-09-12T14:57:46.091Z,120
2016-09-12T14:58:46.418Z,120
2016-09-12T14:59:46.151Z,120
2016-09-12T15:00:46.182Z,115
2016-09-12T15:01:46.273Z,115
2016-09-12T15:03:01.177Z,120
2016-09-12T15:03:46.285Z,120
2016-09-12T15:05:01.246Z,120
2016-09-12T15:06:01.274Z,120
2016-09-12T15:07:01.304Z,120
2016-09-12T15:07:46.719Z,115
2016-09-12T15:08:46.448Z,115
2016-09-12T15:09:46.486Z,115
2016-09-12T15:11:46.537Z,115
2016-09-12T15:12:46.575Z,115
2016-09-12T15:13:46.607Z,110
2016-09-12T15:14:46.651Z,110
2016-09-12T15:15:46.663Z,110
2016-09-12T15:16:46.700Z,110
2016-09-12T15:18:01.664Z,110
2016-09-12T15:18:46.765Z,110
2016-09-12T15:19:46.814Z,115
2016-09-12T15:21:01.757Z,105
2016-09-12T15:22:01.799Z,105
2016-09-12T15:24:01.858Z,105
2016-09-12T15:24:46.962Z,100
2016-09-12T15:25:46.993Z,100
2016-09-12T15:26:47.030Z,100
2016-09-12T15:27:47.063Z,100
2016-09-12T15:28:47.090Z,100
2016-09-12T15:29:47.122Z,100
2016-09-12T15:30:47.155Z,100
2016-09-12T15:32:47.220Z,100
2016-09-12T15:34:47.281Z,100
2016-09-12T15:35:47.315Z,100
2016-09-12T15:36:47.353Z,100
2016-09-12T15:37:47.374Z,95
2016-09-12T15:39:02.336Z,95
2016-09-12T15:40:17.296Z,95
2016-09-12T15:40:47.483Z,95
2016-09-12T15:41:47.509Z,95
2016-09-12T15:43:02.465Z,95
2016-09-12T15:43:47.583Z,90
2016-09-12T15:44:47.954Z,90
2016-09-12T15:46:02.563Z,90
2016-09-12T15:46:47.669Z,90
2016-09-12T15:47:47.708Z,90
2016-09-12T15:48:47.735Z,90
2016-09-12T15:49:47.761Z,85
2016-09-12T15:50:47.798Z,85
2016-09-12T15:52:02.806Z,85
2016-09-12T15:52:47.865Z,85
2016-09-12T15:53:47.906Z,85
2016-09-12T15:55:02.855Z,85
2016-09-12T15:55:47.976Z,85
2016-09-12T15:56:47.990Z,90
2016-09-12T15:57:48.033Z,80
2016-09-12T15:59:02.991Z,80
2016-09-12T15:59:48.088Z,80
2016-09-12T16:00:48.123Z,80
2016-09-12T16:01:48.151Z,80
2016-09-12T16:02:48.189Z,75
2016-09-12T16:03:48.220Z,75
2016-09-12T16:04:48.247Z,75
2016-09-12T16:05:48.277Z,75
2016-09-12T16:07:03.233Z,70
2016-09-12T16:08:03.320Z,70
2016-09-12T16:09:03.311Z,70
2016-09-12T16:09:48.401Z,70
2016-09-12T16:11:18.292Z,65
2016-09-12T16:11:48.473Z,65
2016-09-12T16:13:48.537Z,65
2016-09-12T16:14:48.563Z,65
2016-09-12T16:16:03.544Z,65
2016-09-12T16:16:48.634Z,60
2016-09-12T16:19:03.618Z,60
2016-09-12T16:19:48.730Z,60
2016-09-12T16:20:48.763Z,60
2016-09-12T16:21:48.790Z,55
2016-09-12T16:22:48.820Z,55
2016-09-12T16:24:03.788Z,60
2016-09-12T16:24:48.894Z,55
2016-09-12T16:25:48.916Z,55
2016-09-12T16:27:03.870Z,55
2016-09-12T16:27:48.988Z,55
2016-09-12T16:28:49.012Z,50
2016-09-12T16:29:49.046Z,50
2016-09-12T16:31:04.005Z,50
2016-09-12T16:31:49.106Z,50
2016-09-12T16:32:49.152Z,45
2016-09-12T16:34:04.111Z,45
2016-09-12T16:34:49.204Z,45
2016-09-12T16:35:49.244Z,45
2016-09-12T16:36:49.270Z,40
2016-09-12T16:37:49.304Z,40
2016-09-12T16:38:49.325Z,40
2016-09-12T16:39:49.365Z,40
2016-09-12T16:40:49.395Z,40
2016-09-12T16:42:04.349Z,35
2016-09-12T16:42:49.473Z,35
2016-09-12T16:43:49.490Z,35
2016-09-12T16:44:49.534Z,35
2016-09-12T16:45:49.559Z,35
2016-09-12T16:46:49.584Z,30
2016-09-12T16:47:49.614Z,30
2016-09-12T16:48:49.686Z,30
2016-09-12T16:50:04.610Z,30
2016-09-12T16:50:49.711Z,30
2016-09-12T16:51:49.741Z,25
2016-09-12T16:52:49.769Z,25
2016-09-12T16:54:04.728Z,25
2016-09-12T16:55:04.762Z,25
2016-09-12T16:55:49.871Z,25
2016-09-12T16:56:49.901Z,20
2016-09-12T16:58:19.781Z,20
2016-09-12T16:58:49.968Z,20
2016-09-12T16:59:49.999Z,20
2016-09-12T17:01:04.950Z,20
2016-09-12T17:01:50.065Z,20
2016-09-12T17:02:50.086Z,15
2016-09-12T17:03:50.113Z,15
2016-09-12T17:05:50.177Z,15
2016-09-12T17:06:50.211Z,15
2016-09-12T17:07:50.241Z,15
2016-09-12T17:08:50.271Z,15
2016-09-12T17:11:05.261Z,10
2016-09-12T17:11:50.371Z,10
2016-09-12T17:13:05.322Z,10
2016-09-12T17:14:05.356Z,10
2016-09-12T17:15:20.308Z,10
2016-09-12T17:15:50.489Z,10
2016-09-12T17:16:50.524Z,5
2016-09-12T17:17:50.556Z,5
2016-09-12T17:18:50.575Z,5
2016-09-12T17:19:50.619Z,5
2016-09-12T17:20:50.642Z,5
2016-09-12T17:21:50.675Z,5
2016-09-12T17:22:50.715Z,5
2016-09-12T17:23:50.736Z,5
2016-09-12T17:24:51.065Z,5
2016-09-12T17:25:50.788Z,5
2016-09-12T17:26:50.830Z,0
2016-09-12T17:28:05.781Z,0
2016-09-12T17:28:51.203Z,0
2016-09-12T17:30:05.843Z,0
2016-09-12T17:31:05.880Z,0
2016-09-12T17:31:50.989Z,0
2016-09-12T17:32:51.020Z,0
2016-09-12T17:34:05.974Z,0
2016-09-12T17:34:51.084Z,0
2016-09-12T17:35:51.104Z,0
2016-09-12T17:36:51.141Z,0
2016-09-12T17:37:51.162Z,0
2016-09-12T17:38:51.507Z,0
2016-09-12T17:41:06.180Z,0
2016-09-12T17:42:06.222Z,0
2016-09-12T17:42:51.322Z,0
2016-09-12T17:43:51.351Z,0
2016-09-12T17:44:51.376Z,0
2016-09-12T17:46:06.339Z,0
2016-09-12T17:46:51.747Z,0
2016-09-12T17:47:51.482Z,0
2016-09-12T17:48:51.509Z,0
2016-09-12T17:49:51.557Z,0
2016-09-12T17:50:52.638Z,0
2016-09-12T17:51:51.608Z,0
2016-09-12T17:52:51.629Z,0
2016-09-12T17:53:51.968Z,0
2016-09-12T17:55:06.621Z,0
2016-09-12T17:56:06.655Z,0
2016-09-12T17:57:06.675Z,0
2016-09-12T17:58:06.709Z,0
2016-09-12T17:58:51.808Z,0
2016-09-12T17:59:51.838Z,0
2016-09-12T18:00:51.878Z,0
2016-09-12T18:02:06.823Z,0
2016-09-12T18:02:51.927Z,0
2016-09-12T18:03:51.961Z,0
2016-09-12T18:04:52.009Z,0
2016-09-12T18:05:52.023Z,0
2016-09-12T18:07:06.977Z,0
2016-09-12T18:07:52.105Z,0
2016-09-12T18:08:52.155Z,0
2016-09-12T18:09:52.141Z,0
2016-09-12T18:10:52.170Z,0
2016-09-12T18:11:52.207Z,0
2016-09-12T18:12:52.226Z,0
2016-09-12T18:13:52.265Z,0
2016-09-12T18:14:52.297Z,0
2016-09-12T18:15:52.330Z,0
2016-09-12T18:17:07.279Z,0
2016-09-12T18:17:52.492Z,0
2016-09-12T18:19:07.347Z,0
2016-09-12T18:19:52.447Z,0
2016-09-12T18:20:52.482Z,0
2016-09-12T18:21:52.513Z,0
2016-09-12T18:22:52.535Z,0
2016-09-12T18:23:52.557Z,0
2016-09-12T18:25:07.520Z,0
2016-09-12T18:25:52.626Z,0
2016-09-12T18:26:52.656Z,0
2016-09-12T18:27:52.684Z,0
2016-09-12T18:28:52.713Z,0
2016-09-12T18:29:52.739Z,0
2016-09-12T18:30:52.779Z,0
2016-09-12T18:31:52.805Z,0
2016-09-12T18:32:52.837Z,0
2016-09-12T18:33:53.163Z,0
2016-09-12T18:35:07.817Z,0
2016-09-12T18:35:52.925Z,0
2016-09-12T18:36:52.957Z,0
2016-09-12T18:37:52.986Z,0
2016-09-12T18:38:53.020Z,0
2016-09-12T18:39:53.049Z,0
2016-09-12T18:40:53.073Z,0
2016-09-12T18:41:53.128Z,0
2016-09-12T18:42:53.144Z,0
2016-09-12T18:43:53.181Z,0
2016-09-12T18:44:53.194Z,0
2016-09-12T18:45:53.225Z,0
2016-09-12T18:47:08.487Z,0
2016-09-12T18:47:53.288Z,0
2016-09-12T18:49:08.238Z,0
2016-09-12T18:49:53.345Z,0
2016-09-12T18:51:08.304Z,0
2016-09-12T18:51:53.404Z,0
2016-09-12T18:53:53.460Z,0
2016-09-12T18:54:53.495Z,0
2016-09-12T18:55:53.517Z,0
2016-09-12T18:56:53.556Z,0
2016-09-12T18:57:53.574Z,0
2016-09-12T18:58:53.611Z,0
2016-09-12T18:59:53.647Z,0
2016-09-12T19:00:53.671Z,0
2016-09-12T19:02:23.555Z,0
2016-09-12T19:02:53.727Z,0
2016-09-12T19:03:53.771Z,0
2016-09-12T19:05:08.731Z,0
2016-09-12T19:05:53.821Z,0
2016-09-12T19:07:08.768Z,0
2016-09-12T19:07:53.881Z,0
2016-09-12T19:09:08.839Z,0
2016-09-12T19:09:53.931Z,0
2016-09-12T19:11:08.940Z,0
2016-09-12T19:12:08.921Z,0
2016-09-12T19:12:54.028Z,0
2016-09-12T19:14:08.976Z,0
2016-09-12T19:14:54.087Z,0
2016-09-12T19:15:54.102Z,0
2016-09-12T19:16:54.145Z,0
2016-09-12T19:17:54.173Z,0
2016-09-12T19:19:09.127Z,0
2016-09-12T19:21:09.192Z,0
2016-09-12T19:21:54.289Z,0
2016-09-12T19:23:09.275Z,0
2016-09-12T19:23:54.347Z,0
2016-09-12T19:24:54.386Z,0
2016-09-12T19:25:54.414Z,0
2016-09-12T19:27:54.463Z,0
2016-09-12T19:28:54.491Z,0
2016-09-12T19:29:54.527Z,0
2016-09-12T19:31:54.593Z,0
2016-09-12T19:32:54.607Z,0
2016-09-12T19:34:09.571Z,0
2016-09-12T19:37:09.651Z,0
2016-09-12T19:37:54.772Z,0
2016-09-12T19:38:54.788Z,0
2016-09-12T19:39:54.814Z,0
2016-09-12T19:40:54.846Z,0
2016-09-12T19:41:54.874Z,0
2016-09-12T19:43:09.839Z,0
2016-09-12T19:43:54.941Z,0
2016-09-12T19:44:54.966Z,0
2016-09-12T19:45:54.982Z,0
2016-09-12T19:48:55.393Z,0
2016-09-12T19:51:10.061Z,0
2016-09-12T19:52:10.088Z,0
2016-09-12T19:52:55.253Z,0
2016-09-12T19:53:55.229Z,0
2016-09-12T19:55:10.183Z,0
2016-09-12T19:56:55.313Z,0
2016-09-12T19:57:55.342Z,0
2016-09-12T19:58:55.372Z,0
2016-09-12T19:59:55.395Z,0
2016-09-12T20:00:55.430Z,0
2016-09-12T20:02:10.684Z,0
2016-09-12T20:02:55.495Z,0
2016-09-12T20:03:55.515Z,0
2016-09-12T20:05:10.479Z,0
2016-09-12T20:05:55.576Z,0
2016-09-12T20:06:55.604Z,0
2016-09-12T20:07:55.625Z,0
2016-09-12T20:08:55.670Z,0
2016-09-12T20:09:55.693Z,0
2016-09-12T20:10:55.724Z,0
2016-09-12T20:11:55.756Z,0
2016-09-12T20:12:55.781Z,0
2016-09-12T20:13:55.798Z,0
2016-09-12T20:14:55.833Z,0
2016-09-12T20:15:55.857Z,0
2016-09-12T20:16:55.884Z,0
2016-09-12T20:17:55.921Z,0
2016-09-12T20:18:55.944Z,0
2016-09-12T20:20:10.955Z,0
2016-09-12T20:20:56.001Z,0
2016-09-12T20:22:25.889Z,0
2016-09-12T20:22:56.059Z,0
2016-09-12T20:24:25.945Z,0
2016-09-12T20:24:56.123Z,0
2016-09-12T20:25:56.153Z,0
2016-09-12T20:26:56.180Z,0
2016-09-12T20:27:56.209Z,0
2016-09-12T20:28:56.246Z,0
2016-09-12T20:29:56.266Z,0
2016-09-12T20:30:56.298Z,0
2016-09-12T20:31:56.324Z,0
2016-09-12T20:32:56.349Z,0
2016-09-12T20:33:56.436Z,0
2016-09-12T20:35:11.335Z,0
2016-09-12T20:35:56.431Z,0
2016-09-12T20:36:56.470Z,0
2016-09-12T20:38:11.416Z,0
2016-09-12T20:38:56.522Z,0
2016-09-12T20:40:11.476Z,0
2016-09-12T20:41:11.499Z,0
2016-09-12T20:42:56.640Z,0
2016-09-12T20:45:11.622Z,0
2016-09-12T20:46:11.649Z,0
2016-09-12T20:46:56.746Z,0
2016-09-12T20:48:11.713Z,0
2016-09-12T20:48:56.814Z,0
2016-09-12T20:49:56.841Z,0
2016-09-12T20:50:56.867Z,0
2016-09-12T20:51:56.889Z,0
2016-09-12T20:52:56.927Z,0
2016-09-12T20:53:56.952Z,0
2016-09-12T20:55:11.906Z,0
2016-09-12T20:56:11.930Z,0
2016-09-12T20:58:11.994Z,0
2016-09-12T20:58:57.090Z,0
2016-09-12T20:59:57.117Z,0
2016-09-12T21:00:57.151Z,0
2016-09-12T21:02:12.103Z,0
2016-09-12T21:02:57.216Z,0
2016-09-12T21:04:57.262Z,0
2016-09-12T21:06:12.226Z,0
2016-09-12T21:06:57.316Z,0
2016-09-12T21:07:57.343Z,0
2016-09-12T21:08:57.374Z,0
2016-09-12T21:09:57.412Z,0
2016-09-12T21:10:57.432Z,0
2016-09-12T21:12:12.381Z,0
2016-09-12T21:12:57.484Z,0
2016-09-12T21:14:27.363Z,0
2016-09-12T21:14:57.567Z,0
2016-09-12T21:15:57.573Z,0
2016-09-12T21:16:57.909Z,0
2016-09-12T21:17:57.638Z,0
2016-09-12T21:18:57.662Z,0
2016-09-12T21:20:57.774Z,0
2016-09-12T21:21:57.743Z,0
2016-09-12T21:22:58.071Z,0
2016-09-12T21:23:57.798Z,0
2016-09-12T21:24:57.850Z,0
2016-09-12T21:25:58.152Z,0
2016-09-12T21:27:12.809Z,0
2016-09-12T21:28:12.834Z,0
2016-09-12T21:28:57.943Z,0
2016-09-12T21:30:58.291Z,0
2016-09-12T21:31:58.024Z,0
2016-09-12T21:32:58.058Z,0
2016-09-12T21:33:58.099Z,0
2016-09-12T21:34:58.108Z,0
2016-09-12T21:36:13.075Z,0
2016-09-12T21:37:28.020Z,0
2016-09-12T21:37:58.201Z,0
2016-09-12T21:39:13.150Z,0
2016-09-12T21:40:28.101Z,0
2016-09-12T21:40:58.286Z,0
2016-09-12T21:42:13.229Z,0
2016-09-12T21:42:58.341Z,0
2016-09-12T21:44:13.280Z,0
2016-09-12T21:44:58.388Z,0
2016-09-12T21:45:58.420Z,0
2016-09-12T21:46:58.444Z,0
2016-09-12T21:48:13.399Z,0
2016-09-12T21:49:13.427Z,0
2016-09-12T21:49:58.534Z,0
2016-09-12T21:50:58.547Z,0
2016-09-12T21:51:58.586Z,0
2016-09-12T21:52:58.618Z,0
2016-09-12T21:53:58.643Z,0
2016-09-12T21:54:58.720Z,0
2016-09-12T21:55:58.699Z,0
2016-09-12T21:57:58.756Z,0